createdAt,value
2017-12-21T00:00:39.906Z,8.32
2017-12-21T00:01:42.440Z,8.36
2017-12-21T00:02:44.922Z,8.39
2017-12-21T00:03:47.379Z,8.30
2017-12-21T00:04:49.856Z,8.28
2017-12-21T00:05:52.339Z,8.26
2017-12-21T00:06:54.799Z,8.28
2017-12-21T00:07:57.271Z,8.23
2017-12-21T00:09:01.075Z,8.15
2017-12-21T00:10:03.566Z,8.17
2017-12-21T00:11:06.049Z,8.15
2017-12-21T00:12:08.529Z,8.18
2017-12-21T00:13:11.124Z,8.19
2017-12-21T00:14:13.743Z,8.16
2017-12-21T00:15:16.236Z,8.20
2017-12-21T00:16:18.811Z,8.24
2017-12-21T00:17:21.270Z,8.12
2017-12-21T00:18:23.730Z,8.17
2017-12-21T00:19:26.190Z,8.05
2017-12-21T00:20:28.665Z,7.97
2017-12-21T00:21:31.122Z,7.91
2017-12-21T00:22:40.562Z,8.03
2017-12-21T00:23:43.019Z,8.15
2017-12-21T00:24:45.549Z,8.20
2017-12-21T00:25:48.011Z,8.28
2017-12-21T00:26:50.477Z,8.34
2017-12-21T00:27:52.994Z,8.16
2017-12-21T00:28:55.455Z,8.11
2017-12-21T00:29:57.928Z,7.98
2017-12-21T00:31:00.387Z,8.03
2017-12-21T00:32:02.879Z,8.14
2017-12-21T00:33:05.366Z,8.19
2017-12-21T00:34:07.861Z,8.14
2017-12-21T00:35:10.341Z,8.35
2017-12-21T00:36:12.798Z,8.36
2017-12-21T00:37:15.276Z,8.32
2017-12-21T00:38:17.768Z,8.31
2017-12-21T00:39:20.226Z,8.35
2017-12-21T00:40:22.704Z,8.38
2017-12-21T00:41:25.176Z,8.34
2017-12-21T00:42:27.638Z,8.24
2017-12-21T00:43:30.135Z,8.36
2017-12-21T00:44:32.617Z,8.39
2017-12-21T00:45:35.092Z,8.22
2017-12-21T00:46:37.569Z,8.10
2017-12-21T00:47:40.032Z,8.20
2017-12-21T00:48:42.526Z,8.30
2017-12-21T00:49:44.986Z,8.34
2017-12-21T00:50:47.467Z,8.35
2017-12-21T00:51:49.945Z,8.37
2017-12-21T00:52:52.423Z,8.37
2017-12-21T00:53:54.934Z,8.46
2017-12-21T00:54:57.416Z,8.30
2017-12-21T00:55:59.892Z,8.22
2017-12-21T00:57:02.369Z,8.23
2017-12-21T00:58:04.834Z,8.19
2017-12-21T00:59:07.328Z,8.14
2017-12-21T01:00:09.812Z,7.99
2017-12-21T01:01:12.269Z,7.93
2017-12-21T01:02:14.747Z,7.97
2017-12-21T01:03:17.244Z,8.10
2017-12-21T01:04:19.752Z,8.06
2017-12-21T01:05:22.230Z,8.13
2017-12-21T01:06:24.686Z,8.07
2017-12-21T01:07:27.144Z,8.01
2017-12-21T01:08:29.659Z,8.06
2017-12-21T01:09:32.112Z,8.08
2017-12-21T01:10:34.574Z,7.98
2017-12-21T01:11:37.054Z,7.95
2017-12-21T01:12:39.518Z,8.00
2017-12-21T01:13:42.005Z,7.99
2017-12-21T01:14:44.500Z,8.03
2017-12-21T01:15:46.979Z,7.91
2017-12-21T01:16:49.441Z,7.99
2017-12-21T01:17:51.918Z,8.13
2017-12-21T01:18:54.393Z,8.20
2017-12-21T01:19:56.933Z,8.10
2017-12-21T01:20:59.403Z,8.03
2017-12-21T01:22:01.876Z,8.20
2017-12-21T01:23:04.339Z,8.27
2017-12-21T01:24:06.818Z,8.36
2017-12-21T01:25:09.321Z,8.33
2017-12-21T01:26:11.782Z,8.20
2017-12-21T01:27:14.239Z,8.03
2017-12-21T01:28:16.716Z,8.04
2017-12-21T01:29:19.174Z,7.91
2017-12-21T01:30:21.677Z,7.99
2017-12-21T01:31:24.143Z,8.15
2017-12-21T01:32:26.624Z,8.09
2017-12-21T01:33:29.084Z,8.21
2017-12-21T01:34:31.556Z,8.12
2017-12-21T01:35:34.047Z,8.14
2017-12-21T01:36:36.518Z,8.09
2017-12-21T01:37:38.979Z,7.96
2017-12-21T01:38:41.452Z,7.98
2017-12-21T01:39:43.929Z,7.89
2017-12-21T01:40:46.421Z,8.12
2017-12-21T01:41:48.888Z,8.14
2017-12-21T01:42:51.351Z,8.04
2017-12-21T01:43:53.833Z,8.10
2017-12-21T01:44:56.304Z,8.13
2017-12-21T01:45:58.794Z,8.20
2017-12-21T01:47:01.268Z,8.14
2017-12-21T01:48:03.741Z,8.08
2017-12-21T01:49:06.199Z,8.12
2017-12-21T01:50:08.677Z,8.13
2017-12-21T01:51:11.154Z,8.20
2017-12-21T01:52:13.630Z,8.12
2017-12-21T01:53:16.109Z,8.10
2017-12-21T01:54:18.583Z,8.25
2017-12-21T01:55:21.054Z,8.13
2017-12-21T01:56:23.597Z,8.03
2017-12-21T01:57:26.069Z,7.99
2017-12-21T01:58:28.530Z,7.97
2017-12-21T01:59:31.079Z,8.04
2017-12-21T02:00:33.588Z,8.01
2017-12-21T02:01:36.085Z,8.01
2017-12-21T02:02:38.645Z,8.00
2017-12-21T02:03:41.102Z,8.01
2017-12-21T02:04:43.558Z,8.05
2017-12-21T02:05:47.242Z,8.16
2017-12-21T02:06:49.735Z,8.19
2017-12-21T02:07:52.212Z,8.21
2017-12-21T02:08:54.683Z,8.24
2017-12-21T02:09:57.146Z,8.25
2017-12-21T02:10:59.619Z,8.30
2017-12-21T02:12:02.125Z,8.23
2017-12-21T02:13:04.600Z,8.26
2017-12-21T02:14:07.066Z,8.23
2017-12-21T02:15:09.526Z,8.09
2017-12-21T02:16:11.982Z,8.09
2017-12-21T02:17:14.475Z,8.19
2017-12-21T02:18:16.934Z,8.15
2017-12-21T02:19:19.398Z,8.15
2017-12-21T02:20:21.877Z,8.18
2017-12-21T02:21:24.338Z,8.11
2017-12-21T02:22:31.552Z,8.14
2017-12-21T02:23:34.038Z,8.19
2017-12-21T02:24:36.521Z,8.18
2017-12-21T02:25:40.583Z,8.27
2017-12-21T02:26:43.046Z,8.35
2017-12-21T02:27:45.541Z,8.37
2017-12-21T02:28:48.006Z,8.34
2017-12-21T02:29:50.518Z,8.26
2017-12-21T02:30:53.010Z,8.45
2017-12-21T02:31:55.528Z,8.49
2017-12-21T02:32:58.011Z,8.58
2017-12-21T02:34:00.490Z,8.54
2017-12-21T02:35:02.972Z,8.52
2017-12-21T02:36:07.268Z,8.50
2017-12-21T02:37:09.727Z,8.49
2017-12-21T02:38:12.236Z,8.48
2017-12-21T02:39:14.750Z,8.54
2017-12-21T02:40:17.223Z,8.45
2017-12-21T02:41:19.685Z,8.42
2017-12-21T02:42:22.168Z,8.53
2017-12-21T02:43:24.648Z,8.57
2017-12-21T02:44:27.125Z,8.56
2017-12-21T02:45:29.593Z,8.58
2017-12-21T02:46:41.630Z,8.63
2017-12-21T02:47:44.092Z,8.55
2017-12-21T02:48:46.562Z,8.57
2017-12-21T02:49:49.609Z,8.62
2017-12-21T02:50:52.104Z,8.59
2017-12-21T02:51:54.600Z,8.52
2017-12-21T02:52:57.071Z,8.51
2017-12-21T02:53:59.545Z,8.52
2017-12-21T02:55:02.007Z,8.49
2017-12-21T02:56:04.512Z,8.32
2017-12-21T02:57:06.993Z,8.43
2017-12-21T02:58:09.455Z,8.44
2017-12-21T02:59:11.941Z,8.45
2017-12-21T03:00:20.800Z,8.52
2017-12-21T03:01:23.278Z,8.56
2017-12-21T03:02:25.776Z,8.59
2017-12-21T03:03:28.243Z,8.46
2017-12-21T03:04:30.699Z,8.39
2017-12-21T03:05:33.254Z,8.34
2017-12-21T03:06:35.791Z,8.32
2017-12-21T03:07:38.272Z,8.33
2017-12-21T03:08:42.542Z,8.40
2017-12-21T03:09:45.052Z,8.35
2017-12-21T03:10:47.519Z,8.23
2017-12-21T03:11:50.003Z,8.36
2017-12-21T03:12:52.540Z,8.40
2017-12-21T03:13:55.017Z,8.36
2017-12-21T03:14:57.493Z,8.39
2017-12-21T03:15:59.979Z,8.34
2017-12-21T03:17:02.434Z,8.37
2017-12-21T03:18:04.892Z,8.29
2017-12-21T03:19:07.372Z,8.29
2017-12-21T03:20:09.956Z,8.23
2017-12-21T03:21:12.419Z,8.23
2017-12-21T03:22:14.964Z,8.23
2017-12-21T03:23:17.451Z,8.20
2017-12-21T03:24:19.987Z,8.22
2017-12-21T03:25:22.460Z,8.28
2017-12-21T03:26:24.930Z,8.30
2017-12-21T03:27:27.409Z,8.31
2017-12-21T03:28:29.888Z,8.32
2017-12-21T03:29:32.372Z,8.38
2017-12-21T03:30:34.830Z,8.34
2017-12-21T03:31:37.305Z,8.31
2017-12-21T03:32:39.784Z,8.35
2017-12-21T03:33:42.250Z,8.22
2017-12-21T03:34:44.749Z,8.30
2017-12-21T03:35:47.219Z,8.36
2017-12-21T03:36:49.681Z,8.23
2017-12-21T03:37:52.142Z,8.14
2017-12-21T03:38:54.602Z,8.07
2017-12-21T03:39:57.082Z,8.08
2017-12-21T03:40:59.555Z,8.12
2017-12-21T03:42:02.027Z,8.10
2017-12-21T03:43:04.505Z,8.29
2017-12-21T03:44:07.091Z,8.18
2017-12-21T03:45:09.564Z,8.16
2017-12-21T03:46:12.026Z,8.11
2017-12-21T03:47:14.494Z,8.10
2017-12-21T03:48:16.972Z,8.22
2017-12-21T03:49:19.426Z,8.25
2017-12-21T03:50:21.894Z,8.15
2017-12-21T03:51:24.374Z,8.37
2017-12-21T03:52:26.850Z,8.20
2017-12-21T03:53:29.307Z,8.17
2017-12-21T03:54:31.774Z,8.13
2017-12-21T03:55:34.263Z,8.18
2017-12-21T03:56:36.721Z,8.14
2017-12-21T03:57:39.181Z,8.31
2017-12-21T03:58:41.646Z,8.38
2017-12-21T03:59:44.143Z,8.49
2017-12-21T04:00:46.627Z,8.36
2017-12-21T04:01:49.104Z,8.47
2017-12-21T04:02:51.608Z,8.55
2017-12-21T04:03:54.089Z,8.43
2017-12-21T04:04:56.552Z,8.26
2017-12-21T04:05:59.037Z,8.27
2017-12-21T04:07:01.513Z,8.22
2017-12-21T04:08:03.976Z,8.45
2017-12-21T04:09:06.448Z,8.46
2017-12-21T04:10:08.924Z,8.51
2017-12-21T04:11:11.402Z,8.54
2017-12-21T04:12:13.866Z,8.44
2017-12-21T04:13:16.327Z,8.51
2017-12-21T04:14:18.795Z,8.54
2017-12-21T04:15:21.259Z,8.54
2017-12-21T04:16:23.733Z,8.46
2017-12-21T04:17:26.195Z,8.50
2017-12-21T04:18:28.675Z,8.51
2017-12-21T04:19:31.139Z,8.57
2017-12-21T04:20:33.601Z,8.51
2017-12-21T04:21:36.059Z,8.49
2017-12-21T04:22:38.533Z,8.46
2017-12-21T04:23:41.013Z,8.34
2017-12-21T04:24:43.492Z,8.26
2017-12-21T04:25:45.960Z,8.29
2017-12-21T04:26:48.437Z,8.32
2017-12-21T04:27:50.894Z,8.33
2017-12-21T04:28:53.373Z,8.36
2017-12-21T04:29:55.852Z,8.31
2017-12-21T04:30:58.331Z,8.23
2017-12-21T04:32:00.790Z,8.26
2017-12-21T04:33:03.269Z,8.20
2017-12-21T04:34:05.730Z,8.23
2017-12-21T04:35:08.199Z,8.24
2017-12-21T04:36:10.677Z,8.22
2017-12-21T04:37:13.160Z,8.20
2017-12-21T04:38:15.637Z,8.17
2017-12-21T04:39:18.109Z,8.09
2017-12-21T04:40:20.571Z,8.09
2017-12-21T04:41:23.183Z,8.14
2017-12-21T04:42:25.642Z,8.13
2017-12-21T04:43:28.106Z,8.17
2017-12-21T04:44:30.569Z,8.19
2017-12-21T04:45:33.042Z,8.16
2017-12-21T04:46:35.502Z,8.18
2017-12-21T04:47:37.983Z,8.18
2017-12-21T04:48:40.455Z,8.07
2017-12-21T04:49:42.914Z,8.14
2017-12-21T04:50:45.378Z,8.16
2017-12-21T04:51:47.862Z,8.19
2017-12-21T04:52:50.318Z,8.18
2017-12-21T04:53:52.801Z,8.17
2017-12-21T04:54:55.269Z,8.12
2017-12-21T04:55:57.756Z,8.22
2017-12-21T04:57:00.215Z,8.18
2017-12-21T04:58:02.700Z,8.20
2017-12-21T04:59:05.158Z,8.15
2017-12-21T05:00:07.615Z,8.07
2017-12-21T05:01:10.086Z,8.09
2017-12-21T05:02:12.551Z,8.17
2017-12-21T05:03:15.024Z,8.16
2017-12-21T05:04:17.525Z,8.17
2017-12-21T05:05:19.984Z,8.17
2017-12-21T05:06:22.456Z,8.16
2017-12-21T05:07:24.918Z,8.14
2017-12-21T05:08:27.381Z,8.14
2017-12-21T05:09:29.852Z,8.16
2017-12-21T05:10:32.331Z,8.16
2017-12-21T05:11:34.806Z,8.18
2017-12-21T05:12:37.288Z,8.22
2017-12-21T05:13:39.765Z,8.23
2017-12-21T05:14:42.244Z,8.25
2017-12-21T05:15:44.716Z,8.25
2017-12-21T05:16:47.174Z,8.19
2017-12-21T05:17:49.648Z,8.14
2017-12-21T05:18:52.112Z,8.11
2017-12-21T05:19:54.600Z,8.02
2017-12-21T05:20:57.059Z,8.16
2017-12-21T05:21:59.532Z,8.22
2017-12-21T05:23:01.992Z,8.18
2017-12-21T05:24:04.472Z,8.16
2017-12-21T05:25:06.948Z,8.20
2017-12-21T05:26:09.410Z,8.21
2017-12-21T05:27:11.866Z,8.11
2017-12-21T05:28:14.330Z,8.17
2017-12-21T05:29:16.801Z,8.21
2017-12-21T05:30:19.262Z,8.16
2017-12-21T05:31:21.742Z,8.22
2017-12-21T05:32:24.221Z,8.26
2017-12-21T05:33:26.704Z,8.19
2017-12-21T05:34:29.185Z,8.16
2017-12-21T05:35:31.657Z,8.22
2017-12-21T05:36:34.133Z,8.21
2017-12-21T05:37:36.612Z,8.26
2017-12-21T05:38:39.091Z,8.25
2017-12-21T05:39:41.565Z,8.25
2017-12-21T05:40:44.029Z,8.27
2017-12-21T05:41:46.504Z,8.20
2017-12-21T05:42:48.976Z,8.26
2017-12-21T05:43:51.435Z,8.19
2017-12-21T05:44:53.926Z,8.13
2017-12-21T05:45:56.386Z,8.16
2017-12-21T05:46:58.864Z,8.18
2017-12-21T05:48:01.341Z,8.22
2017-12-21T05:49:03.817Z,8.20
2017-12-21T05:50:06.292Z,8.19
2017-12-21T05:51:08.772Z,8.16
2017-12-21T05:52:11.255Z,8.19
2017-12-21T05:53:13.715Z,8.16
2017-12-21T05:54:16.232Z,8.06
2017-12-21T05:55:18.658Z,8.13
2017-12-21T05:56:21.191Z,8.13
2017-12-21T05:57:23.654Z,8.04
2017-12-21T05:58:26.127Z,8.21
2017-12-21T05:59:28.636Z,8.24
2017-12-21T06:00:31.117Z,8.24
2017-12-21T06:01:33.598Z,8.24
2017-12-21T06:02:36.075Z,8.24
2017-12-21T06:03:38.574Z,8.26
2017-12-21T06:04:41.057Z,8.24
2017-12-21T06:05:43.533Z,8.18
2017-12-21T06:06:46.008Z,8.19
2017-12-21T06:07:48.466Z,8.23
2017-12-21T06:08:50.922Z,8.27
2017-12-21T06:09:53.424Z,8.24
2017-12-21T06:10:55.915Z,8.29
2017-12-21T06:11:58.378Z,8.24
2017-12-21T06:13:00.862Z,8.32
2017-12-21T06:14:03.325Z,8.20
2017-12-21T06:15:05.812Z,8.21
2017-12-21T06:16:08.289Z,8.23
2017-12-21T06:17:10.742Z,8.26
2017-12-21T06:18:13.212Z,8.23
2017-12-21T06:19:15.723Z,8.20
2017-12-21T06:20:18.186Z,8.19
2017-12-21T06:21:20.651Z,8.18
2017-12-21T06:22:23.218Z,8.31
2017-12-21T06:23:25.695Z,8.32
2017-12-21T06:24:28.198Z,8.34
2017-12-21T06:25:30.662Z,8.35
2017-12-21T06:26:33.130Z,8.36
2017-12-21T06:27:35.590Z,8.37
2017-12-21T06:28:38.108Z,8.31
2017-12-21T06:29:40.583Z,8.30
2017-12-21T06:30:43.090Z,8.18
2017-12-21T06:31:45.578Z,8.19
2017-12-21T06:32:48.039Z,8.13
2017-12-21T06:33:50.494Z,8.07
2017-12-21T06:34:53.026Z,8.09
2017-12-21T06:35:55.501Z,8.15
2017-12-21T06:36:57.959Z,8.16
2017-12-21T06:38:00.492Z,8.11
2017-12-21T06:39:02.970Z,8.16
2017-12-21T06:40:05.438Z,8.16
2017-12-21T06:41:07.907Z,8.12
2017-12-21T06:42:10.434Z,8.11
2017-12-21T06:43:12.918Z,8.15
2017-12-21T06:44:15.382Z,8.13
2017-12-21T06:45:17.844Z,8.07
2017-12-21T06:46:20.322Z,8.15
2017-12-21T06:47:22.840Z,8.10
2017-12-21T06:48:25.309Z,8.21
2017-12-21T06:49:27.770Z,8.17
2017-12-21T06:50:30.230Z,8.25
2017-12-21T06:51:32.722Z,8.17
2017-12-21T06:52:35.195Z,8.20
2017-12-21T06:53:37.742Z,8.15
2017-12-21T06:54:40.293Z,8.24
2017-12-21T06:55:42.768Z,8.20
2017-12-21T06:56:45.234Z,8.24
2017-12-21T06:57:47.739Z,8.28
2017-12-21T06:58:50.209Z,8.29
2017-12-21T06:59:52.724Z,8.32
2017-12-21T07:00:55.195Z,8.22
2017-12-21T07:01:57.660Z,8.31
2017-12-21T07:03:00.132Z,8.32
2017-12-21T07:04:02.594Z,8.17
2017-12-21T07:05:05.053Z,8.28
2017-12-21T07:06:07.534Z,8.30
2017-12-21T07:07:10.028Z,8.15
2017-12-21T07:08:12.512Z,8.20
2017-12-21T07:09:14.995Z,8.21
2017-12-21T07:10:17.606Z,8.29
2017-12-21T07:11:20.085Z,8.28
2017-12-21T07:12:22.565Z,8.17
2017-12-21T07:13:25.039Z,8.12
2017-12-21T07:14:27.506Z,8.15
2017-12-21T07:15:29.980Z,8.25
2017-12-21T07:16:32.470Z,8.34
2017-12-21T07:17:34.987Z,8.33
2017-12-21T07:18:37.545Z,8.28
2017-12-21T07:19:40.014Z,8.30
2017-12-21T07:20:42.497Z,8.27
2017-12-21T07:21:44.962Z,8.26
2017-12-21T07:22:47.448Z,8.28
2017-12-21T07:23:49.925Z,8.19
2017-12-21T07:24:52.391Z,8.10
2017-12-21T07:25:54.854Z,7.98
2017-12-21T07:26:57.335Z,8.00
2017-12-21T07:28:00.115Z,8.17
2017-12-21T07:29:02.616Z,8.20
2017-12-21T07:30:05.090Z,8.22
2017-12-21T07:31:07.560Z,8.24
2017-12-21T07:32:10.035Z,8.27
2017-12-21T07:33:12.508Z,8.19
2017-12-21T07:34:14.996Z,8.05
2017-12-21T07:35:17.473Z,8.15
2017-12-21T07:36:19.939Z,8.25
2017-12-21T07:37:22.416Z,8.23
2017-12-21T07:38:24.986Z,8.29
2017-12-21T07:39:27.473Z,8.19
2017-12-21T07:40:29.945Z,8.26
2017-12-21T07:41:32.461Z,8.30
2017-12-21T07:42:34.920Z,8.33
2017-12-21T07:43:37.731Z,8.32
2017-12-21T07:44:40.195Z,8.21
2017-12-21T07:45:42.703Z,8.21
2017-12-21T07:46:45.262Z,8.23
2017-12-21T07:47:47.719Z,8.25
2017-12-21T07:48:50.182Z,8.35
2017-12-21T07:49:52.666Z,8.39
2017-12-21T07:50:55.141Z,8.35
2017-12-21T07:51:57.613Z,8.35
2017-12-21T07:53:00.088Z,8.31
2017-12-21T07:54:02.563Z,8.42
2017-12-21T07:55:05.044Z,8.42
2017-12-21T07:56:07.533Z,8.40
2017-12-21T07:57:09.990Z,8.40
2017-12-21T07:58:12.453Z,8.37
2017-12-21T07:59:14.920Z,8.38
2017-12-21T08:00:17.384Z,8.40
2017-12-21T08:01:19.846Z,8.41
2017-12-21T08:02:22.321Z,8.36
2017-12-21T08:03:24.999Z,8.44
2017-12-21T08:04:27.938Z,8.45
2017-12-21T08:05:30.395Z,8.38
2017-12-21T08:06:32.854Z,8.37
2017-12-21T08:07:35.313Z,8.45
2017-12-21T08:08:37.786Z,8.43
2017-12-21T08:09:40.289Z,8.34
2017-12-21T08:10:42.783Z,8.26
2017-12-21T08:11:45.261Z,8.44
2017-12-21T08:12:47.720Z,8.40
2017-12-21T08:13:50.196Z,8.40
2017-12-21T08:14:52.676Z,8.49
2017-12-21T08:15:55.149Z,8.22
2017-12-21T08:16:57.615Z,8.15
2017-12-21T08:18:00.084Z,8.28
2017-12-21T08:19:02.556Z,8.38
2017-12-21T08:20:05.141Z,8.41
2017-12-21T08:21:07.603Z,8.45
2017-12-21T08:22:10.089Z,8.46
2017-12-21T08:23:12.561Z,8.40
2017-12-21T08:24:15.044Z,8.40
2017-12-21T08:25:17.520Z,8.32
2017-12-21T08:26:20.022Z,8.42
2017-12-21T08:27:22.563Z,8.44
2017-12-21T08:28:25.045Z,8.49
2017-12-21T08:29:27.516Z,8.42
2017-12-21T08:30:30.006Z,8.44
2017-12-21T08:31:32.502Z,8.45
2017-12-21T08:32:34.987Z,8.41
2017-12-21T08:33:37.472Z,8.37
2017-12-21T08:34:39.934Z,8.42
2017-12-21T08:35:42.414Z,8.41
2017-12-21T08:36:44.937Z,8.49
2017-12-21T08:37:47.412Z,8.54
2017-12-21T08:38:49.913Z,8.57
2017-12-21T08:39:52.381Z,8.59
2017-12-21T08:40:54.856Z,8.52
2017-12-21T08:41:57.333Z,8.44
2017-12-21T08:42:59.839Z,8.37
2017-12-21T08:44:02.330Z,8.58
2017-12-21T08:45:04.791Z,8.51
2017-12-21T08:46:07.256Z,8.44
2017-12-21T08:47:09.718Z,8.42
2017-12-21T08:48:12.190Z,8.43
2017-12-21T08:49:14.676Z,8.48
2017-12-21T08:50:17.143Z,8.67
2017-12-21T08:51:19.620Z,8.75
2017-12-21T08:52:22.088Z,8.58
2017-12-21T08:53:24.565Z,8.43
2017-12-21T08:54:27.022Z,8.44
2017-12-21T08:55:29.505Z,8.32
2017-12-21T08:56:31.970Z,8.45
2017-12-21T08:57:34.536Z,8.38
2017-12-21T08:58:37.016Z,8.58
2017-12-21T08:59:39.487Z,8.65
2017-12-21T09:00:41.951Z,8.68
2017-12-21T09:01:44.439Z,8.69
2017-12-21T09:02:46.926Z,8.68
2017-12-21T09:03:49.404Z,8.59
2017-12-21T09:04:51.946Z,8.48
2017-12-21T09:05:54.425Z,8.54
2017-12-21T09:06:56.882Z,8.45
2017-12-21T09:07:59.724Z,8.55
2017-12-21T09:09:02.200Z,8.71
2017-12-21T09:10:04.743Z,8.72
2017-12-21T09:11:07.207Z,8.72
2017-12-21T09:12:09.674Z,8.71
2017-12-21T09:13:12.149Z,8.62
2017-12-21T09:14:14.615Z,8.55
2017-12-21T09:15:17.327Z,8.57
2017-12-21T09:16:20.961Z,8.62
2017-12-21T09:17:23.845Z,8.60
2017-12-21T09:18:26.315Z,8.54
2017-12-21T09:19:28.788Z,8.52
2017-12-21T09:20:31.268Z,8.53
2017-12-21T09:21:33.730Z,8.42
2017-12-21T09:22:36.211Z,8.50
2017-12-21T09:23:43.123Z,8.61
2017-12-21T09:24:45.594Z,8.66
2017-12-21T09:25:48.080Z,8.58
2017-12-21T09:26:50.543Z,8.68
2017-12-21T09:27:53.280Z,8.69
2017-12-21T09:28:55.767Z,8.72
2017-12-21T09:29:58.240Z,8.65
2017-12-21T09:31:00.700Z,8.70
2017-12-21T09:32:03.213Z,8.74
2017-12-21T09:33:05.688Z,8.79
2017-12-21T09:34:08.219Z,8.78
2017-12-21T09:35:10.694Z,8.63
2017-12-21T09:36:13.163Z,8.75
2017-12-21T09:37:15.663Z,8.73
2017-12-21T09:38:18.157Z,8.69
2017-12-21T09:39:20.629Z,8.64
2017-12-21T09:40:23.088Z,8.51
2017-12-21T09:41:25.568Z,8.51
2017-12-21T09:42:28.023Z,8.61
2017-12-21T09:43:30.502Z,8.68
2017-12-21T09:44:32.994Z,8.67
2017-12-21T09:45:35.452Z,8.63
2017-12-21T09:46:37.926Z,8.59
2017-12-21T09:47:40.432Z,8.63
2017-12-21T09:48:42.926Z,8.67
2017-12-21T09:49:45.378Z,8.63
2017-12-21T09:50:47.876Z,8.69
2017-12-21T09:51:54.667Z,8.50
2017-12-21T09:52:57.265Z,8.59
2017-12-21T09:54:00.129Z,8.62
2017-12-21T09:55:02.620Z,8.71
2017-12-21T09:56:05.133Z,8.68
2017-12-21T09:57:07.619Z,8.65
2017-12-21T09:58:10.128Z,8.73
2017-12-21T09:59:12.603Z,8.81
2017-12-21T10:00:15.107Z,8.76
2017-12-21T10:01:17.571Z,8.74
2017-12-21T10:02:20.034Z,8.73
2017-12-21T10:03:22.549Z,8.61
2017-12-21T10:04:25.307Z,8.70
2017-12-21T10:05:27.835Z,8.80
2017-12-21T10:06:30.620Z,8.86
2017-12-21T10:07:33.116Z,8.80
2017-12-21T10:08:35.580Z,8.84
2017-12-21T10:09:38.259Z,8.82
2017-12-21T10:10:40.753Z,8.79
2017-12-21T10:11:43.278Z,8.75
2017-12-21T10:12:45.754Z,8.67
2017-12-21T10:13:48.249Z,8.73
2017-12-21T10:14:50.710Z,8.83
2017-12-21T10:15:53.232Z,8.89
2017-12-21T10:16:55.745Z,8.88
2017-12-21T10:17:58.365Z,8.86
2017-12-21T10:19:00.845Z,8.79
2017-12-21T10:20:03.342Z,8.87
2017-12-21T10:21:05.883Z,8.90
2017-12-21T10:22:08.419Z,8.95
2017-12-21T10:23:10.917Z,8.91
2017-12-21T10:24:13.387Z,8.94
2017-12-21T10:25:15.902Z,8.96
2017-12-21T10:26:18.377Z,8.91
2017-12-21T10:27:20.896Z,8.92
2017-12-21T10:28:23.370Z,8.96
2017-12-21T10:29:25.953Z,8.98
2017-12-21T10:30:28.483Z,8.99
2017-12-21T10:31:31.822Z,8.94
2017-12-21T10:32:34.302Z,8.93
2017-12-21T10:33:36.765Z,8.96
2017-12-21T10:34:39.267Z,8.96
2017-12-21T10:35:41.781Z,8.89
2017-12-21T10:36:44.247Z,8.87
2017-12-21T10:37:46.736Z,8.94
2017-12-21T10:38:49.198Z,9.00
2017-12-21T10:39:51.673Z,8.98
2017-12-21T10:40:54.391Z,8.91
2017-12-21T10:41:57.326Z,8.98
2017-12-21T10:42:59.855Z,8.99
2017-12-21T10:44:02.330Z,8.99
2017-12-21T10:45:04.791Z,8.96
2017-12-21T10:46:07.258Z,9.01
2017-12-21T10:47:09.749Z,9.03
2017-12-21T10:48:12.242Z,9.01
2017-12-21T10:49:14.734Z,9.03
2017-12-21T10:50:17.221Z,9.09
2017-12-21T10:51:19.707Z,9.09
2017-12-21T10:52:22.194Z,9.07
2017-12-21T10:53:24.769Z,9.07
2017-12-21T10:54:27.289Z,9.15
2017-12-21T10:55:29.869Z,9.04
2017-12-21T10:56:32.329Z,9.06
2017-12-21T10:57:34.829Z,9.16
2017-12-21T10:58:37.290Z,9.09
2017-12-21T10:59:39.746Z,9.21
2017-12-21T11:00:42.274Z,9.21
2017-12-21T11:01:44.752Z,9.24
2017-12-21T11:02:47.215Z,9.30
2017-12-21T11:03:49.697Z,9.22
2017-12-21T11:04:52.205Z,9.20
2017-12-21T11:05:55.002Z,9.19
2017-12-21T11:06:57.498Z,9.13
2017-12-21T11:08:00.005Z,9.07
2017-12-21T11:09:02.562Z,9.10
2017-12-21T11:10:05.160Z,9.15
2017-12-21T11:11:07.893Z,9.19
2017-12-21T11:12:10.347Z,9.20
2017-12-21T11:13:12.819Z,9.23
2017-12-21T11:14:15.284Z,9.20
2017-12-21T11:15:17.771Z,9.08
2017-12-21T11:16:20.235Z,9.19
2017-12-21T11:17:22.709Z,9.22
2017-12-21T11:18:25.185Z,9.22
2017-12-21T11:19:27.676Z,9.16
2017-12-21T11:20:30.144Z,9.20
2017-12-21T11:21:32.618Z,9.11
2017-12-21T11:22:35.092Z,9.10
2017-12-21T11:23:37.581Z,9.11
2017-12-21T11:24:40.184Z,9.20
2017-12-21T11:25:42.780Z,9.25
2017-12-21T11:26:45.261Z,9.27
2017-12-21T11:27:47.761Z,9.31
2017-12-21T11:28:50.231Z,9.28
2017-12-21T11:29:52.710Z,9.27
2017-12-21T11:30:55.219Z,9.19
2017-12-21T11:31:57.700Z,9.33
2017-12-21T11:33:00.187Z,9.39
2017-12-21T11:34:02.656Z,9.34
2017-12-21T11:35:05.118Z,9.31
2017-12-21T11:36:07.590Z,9.28
2017-12-21T11:37:10.061Z,9.23
2017-12-21T11:38:12.638Z,9.22
2017-12-21T11:39:15.137Z,9.24
2017-12-21T11:40:17.616Z,9.28
2017-12-21T11:41:20.074Z,9.36
2017-12-21T11:42:22.557Z,9.38
2017-12-21T11:43:25.032Z,9.36
2017-12-21T11:44:27.513Z,9.38
2017-12-21T11:45:29.974Z,9.36
2017-12-21T11:46:32.532Z,9.38
2017-12-21T11:47:35.024Z,9.30
2017-12-21T11:48:37.478Z,9.35
2017-12-21T11:49:41.310Z,9.45
2017-12-21T11:50:43.809Z,9.41
2017-12-21T11:51:46.288Z,9.35
2017-12-21T11:52:48.764Z,9.47
2017-12-21T11:53:51.240Z,9.28
2017-12-21T11:54:53.725Z,9.28
2017-12-21T11:55:56.207Z,9.16
2017-12-21T11:56:58.672Z,9.35
2017-12-21T11:58:01.147Z,9.36
2017-12-21T11:59:03.673Z,9.33
2017-12-21T12:00:06.153Z,9.37
2017-12-21T12:01:08.607Z,9.34
2017-12-21T12:02:11.071Z,9.26
2017-12-21T12:03:13.534Z,9.39
2017-12-21T12:04:16.171Z,9.26
2017-12-21T12:05:18.627Z,9.08
2017-12-21T12:06:21.190Z,9.28
2017-12-21T12:07:23.665Z,9.38
2017-12-21T12:08:26.202Z,9.39
2017-12-21T12:09:28.667Z,9.24
2017-12-21T12:10:31.127Z,9.06
2017-12-21T12:11:33.639Z,9.05
2017-12-21T12:12:36.116Z,9.03
2017-12-21T12:13:38.587Z,9.24
2017-12-21T12:14:41.042Z,9.25
2017-12-21T12:15:44.364Z,9.10
2017-12-21T12:16:46.839Z,8.99
2017-12-21T12:17:49.320Z,9.14
2017-12-21T12:18:51.782Z,9.11
2017-12-21T12:19:54.373Z,9.02
2017-12-21T12:20:56.839Z,9.06
2017-12-21T12:21:59.310Z,9.07
2017-12-21T12:23:01.792Z,9.22
2017-12-21T12:24:04.251Z,9.27
2017-12-21T12:25:06.800Z,9.37
2017-12-21T12:26:09.285Z,9.53
2017-12-21T12:27:11.746Z,9.61
2017-12-21T12:28:14.310Z,9.65
2017-12-21T12:29:16.784Z,9.52
2017-12-21T12:30:19.261Z,9.48
2017-12-21T12:31:21.728Z,9.48
2017-12-21T12:32:24.329Z,9.51
2017-12-21T12:33:26.859Z,9.47
2017-12-21T12:34:29.327Z,9.56
2017-12-21T12:35:31.819Z,9.61
2017-12-21T12:36:34.294Z,9.67
2017-12-21T12:37:36.767Z,9.68
2017-12-21T12:38:39.252Z,9.58
2017-12-21T12:39:41.726Z,9.69
2017-12-21T12:40:44.183Z,9.69
2017-12-21T12:41:46.696Z,9.75
2017-12-21T12:42:49.162Z,9.76
2017-12-21T12:43:51.650Z,9.78
2017-12-21T12:44:54.139Z,9.42
2017-12-21T12:45:56.631Z,9.44
2017-12-21T12:46:59.103Z,9.54
2017-12-21T12:48:01.593Z,9.65
2017-12-21T12:49:04.067Z,9.73
2017-12-21T12:50:06.540Z,9.58
2017-12-21T12:51:09.017Z,9.52
2017-12-21T12:52:11.494Z,9.66
2017-12-21T12:53:14.008Z,9.62
2017-12-21T12:54:16.634Z,9.55
2017-12-21T12:55:19.094Z,9.44
2017-12-21T12:56:21.559Z,9.19
2017-12-21T12:57:24.023Z,9.36
2017-12-21T12:58:26.496Z,9.45
2017-12-21T12:59:28.968Z,9.39
2017-12-21T13:00:31.441Z,9.26
2017-12-21T13:01:33.927Z,9.41
2017-12-21T13:02:36.410Z,9.34
2017-12-21T13:03:38.941Z,9.40
2017-12-21T13:04:41.408Z,9.43
2017-12-21T13:05:43.939Z,9.60
2017-12-21T13:06:46.417Z,9.46
2017-12-21T13:07:48.896Z,9.34
2017-12-21T13:08:51.367Z,9.11
2017-12-21T13:09:53.849Z,9.30
2017-12-21T13:10:56.340Z,9.30
2017-12-21T13:11:58.846Z,9.24
2017-12-21T13:13:01.325Z,9.15
2017-12-21T13:14:03.811Z,9.08
2017-12-21T13:15:06.275Z,9.03
2017-12-21T13:16:08.761Z,9.02
2017-12-21T13:17:11.234Z,9.26
2017-12-21T13:18:13.721Z,9.39
2017-12-21T13:19:16.177Z,9.35
2017-12-21T13:20:18.660Z,9.49
2017-12-21T13:21:21.125Z,9.42
2017-12-21T13:22:23.602Z,9.20
2017-12-21T13:23:26.085Z,9.22
2017-12-21T13:24:28.572Z,9.44
2017-12-21T13:25:31.030Z,9.36
2017-12-21T13:26:33.486Z,9.16
2017-12-21T13:27:35.969Z,9.29
2017-12-21T13:28:38.435Z,9.38
2017-12-21T13:29:40.914Z,9.25
2017-12-21T13:30:43.384Z,9.22
2017-12-21T13:31:45.843Z,9.33
2017-12-21T13:32:48.328Z,9.44
2017-12-21T13:33:50.849Z,9.26
2017-12-21T13:34:53.329Z,9.25
2017-12-21T13:35:55.791Z,9.39
2017-12-21T13:36:58.272Z,9.48
2017-12-21T13:38:00.746Z,9.35
2017-12-21T13:39:03.220Z,9.43
2017-12-21T13:40:05.720Z,9.34
2017-12-21T13:41:08.422Z,9.16
2017-12-21T13:42:10.900Z,9.26
2017-12-21T13:43:13.385Z,9.14
2017-12-21T13:44:15.880Z,9.02
2017-12-21T13:45:18.343Z,9.20
2017-12-21T13:46:20.825Z,9.32
2017-12-21T13:47:23.317Z,9.36
2017-12-21T13:48:25.798Z,9.35
2017-12-21T13:49:28.276Z,9.32
2017-12-21T13:50:30.741Z,9.15
2017-12-21T13:51:33.278Z,9.03
2017-12-21T13:52:35.766Z,9.07